createdAt,value
2019-04-16T00:01:38.404Z,5.98
2019-04-16T00:05:22.365Z,5.92
2019-04-16T00:08:33.120Z,5.85
2019-04-16T00:11:21.656Z,5.77
2019-04-16T00:14:13.640Z,5.74
2019-04-16T00:16:46.930Z,5.65
2019-04-16T00:19:21.581Z,5.61
2019-04-16T00:22:12.592Z,5.58
2019-04-16T00:24:50.120Z,5.52
2019-04-16T00:27:28.312Z,5.47
2019-04-16T00:30:03.888Z,5.45
2019-04-16T00:32:38.022Z,5.41
2019-04-16T00:35:15.645Z,5.35
2019-04-16T00:37:51.426Z,5.33
2019-04-16T00:40:26.398Z,5.26
2019-04-16T00:42:57.701Z,5.27
2019-04-16T00:45:30.919Z,5.30
2019-04-16T00:48:05.600Z,5.30
2019-04-16T00:50:43.674Z,5.27
2019-04-16T00:53:16.818Z,5.34
2019-04-16T00:55:54.295Z,5.27
2019-04-16T00:58:28.770Z,5.45
2019-04-16T01:01:08.087Z,5.35
2019-04-16T01:03:43.116Z,5.26
2019-04-16T01:06:16.380Z,5.45
2019-04-16T01:08:54.709Z,5.33
2019-04-16T01:11:26.170Z,5.34
2019-04-16T01:13:59.423Z,5.47
2019-04-16T01:16:35.805Z,5.35
2019-04-16T01:19:09.992Z,5.31
2019-04-16T01:21:47.344Z,5.41
2019-04-16T01:24:22.278Z,5.27
2019-04-16T01:26:58.390Z,5.34
2019-04-16T01:29:35.245Z,5.28
2019-04-16T01:32:35.436Z,5.30
2019-04-16T01:35:27.621Z,5.43
2019-04-16T01:38:18.661Z,5.30
2019-04-16T01:41:00.852Z,5.52
2019-04-16T01:43:41.131Z,5.41
2019-04-16T01:46:09.971Z,5.27
2019-04-16T01:48:50.514Z,5.43
2019-04-16T01:51:25.452Z,5.26
2019-04-16T01:53:57.976Z,5.38
2019-04-16T01:56:35.242Z,5.38
2019-04-16T01:59:14.073Z,5.52
2019-04-16T02:01:47.364Z,5.30
2019-04-16T02:04:22.167Z,5.50
2019-04-16T02:06:57.874Z,5.35
2019-04-16T02:09:34.539Z,5.54
2019-04-16T02:12:06.338Z,5.48
2019-04-16T02:14:41.466Z,5.26
2019-04-16T02:17:16.941Z,5.57
2019-04-16T02:19:50.402Z,5.37
2019-04-16T02:22:27.874Z,5.48
2019-04-16T02:25:02.776Z,5.58
2019-04-16T02:27:40.276Z,5.30
2019-04-16T02:30:17.583Z,5.47
2019-04-16T02:32:51.460Z,5.28
2019-04-16T02:35:32.707Z,5.54
2019-04-16T02:38:10.197Z,5.34
2019-04-16T02:40:39.173Z,5.51
2019-04-16T02:43:18.030Z,5.41
2019-04-16T02:45:47.527Z,5.47
2019-04-16T02:48:22.355Z,5.54
2019-04-16T02:51:07.411Z,5.24
2019-04-16T02:54:02.057Z,5.60
2019-04-16T02:57:01.582Z,5.30
2019-04-16T02:59:45.700Z,5.50
2019-04-16T03:02:33.070Z,5.23
2019-04-16T03:05:11.937Z,5.50
2019-04-16T03:07:45.351Z,5.23
2019-04-16T03:10:18.695Z,5.52
2019-04-16T03:12:55.422Z,5.24
2019-04-16T03:15:56.814Z,5.55
2019-04-16T03:18:37.104Z,5.24
2019-04-16T03:21:11.870Z,5.60
2019-04-16T03:23:45.276Z,5.31
2019-04-16T03:26:18.613Z,5.67
2019-04-16T03:28:51.979Z,5.47
2019-04-16T03:31:26.500Z,5.38
2019-04-16T03:34:02.710Z,5.58
2019-04-16T03:36:37.760Z,5.26
2019-04-16T03:39:13.188Z,5.65
2019-04-16T03:41:46.243Z,5.37
2019-04-16T03:44:21.267Z,5.64
2019-04-16T03:46:54.599Z,5.54
2019-04-16T03:49:28.504Z,5.23
2019-04-16T03:52:04.785Z,5.65
2019-04-16T03:54:36.941Z,5.33
2019-04-16T03:57:10.313Z,5.75
2019-04-16T03:59:49.463Z,5.54
2019-04-16T04:02:23.116Z,5.27
2019-04-16T04:04:57.607Z,5.62
2019-04-16T04:07:33.383Z,5.27
2019-04-16T04:10:11.569Z,5.72
2019-04-16T04:12:50.194Z,5.47
2019-04-16T04:15:26.368Z,5.52
2019-04-16T04:18:03.201Z,5.67
2019-04-16T04:20:37.630Z,5.26
2019-04-16T04:23:11.072Z,5.74
2019-04-16T04:25:45.053Z,5.50
2019-04-16T04:28:29.199Z,5.33
2019-04-16T04:31:05.588Z,5.64
2019-04-16T04:33:42.690Z,5.30
2019-04-16T04:36:14.824Z,5.67
2019-04-16T04:38:53.548Z,5.40
2019-04-16T04:41:29.124Z,5.58
2019-04-16T04:44:14.048Z,5.60
2019-04-16T04:46:47.331Z,5.27
2019-04-16T04:49:29.931Z,5.57
2019-04-16T04:51:57.170Z,5.33
2019-04-16T04:54:30.775Z,5.61
2019-04-16T04:57:04.499Z,5.50
2019-04-16T04:59:37.791Z,5.24
2019-04-16T05:02:14.536Z,5.47
2019-04-16T05:05:10.992Z,5.28
2019-04-16T05:07:44.282Z,5.45
2019-04-16T05:10:19.569Z,5.31
2019-04-16T05:12:53.569Z,5.40
2019-04-16T05:15:29.441Z,5.40
2019-04-16T05:18:06.239Z,5.27
2019-04-16T05:20:41.290Z,5.50
2019-04-16T05:23:17.853Z,5.40
2019-04-16T05:25:55.970Z,5.33
2019-04-16T05:28:29.193Z,5.28
2019-04-16T05:31:03.886Z,5.31
2019-04-16T05:33:39.651Z,5.30
2019-04-16T05:36:14.179Z,5.30
2019-04-16T05:38:49.160Z,5.34
2019-04-16T05:41:24.308Z,5.37
2019-04-16T05:43:58.474Z,5.43
2019-04-16T05:46:34.708Z,5.47
2019-04-16T05:49:09.172Z,5.55
2019-04-16T05:51:42.272Z,5.58
2019-04-16T05:54:44.324Z,5.68
2019-04-16T05:57:25.644Z,5.79
2019-04-16T06:00:02.794Z,5.86
2019-04-16T06:02:41.956Z,5.98
2019-04-16T06:05:21.119Z,6.10
2019-04-16T06:07:51.823Z,6.18
2019-04-16T06:10:25.096Z,6.30
2019-04-16T06:13:14.872Z,6.37
2019-04-16T06:16:26.179Z,6.47
2019-04-16T06:19:11.536Z,6.56
2019-04-16T06:22:21.841Z,6.72
2019-04-16T06:25:16.572Z,6.90
2019-04-16T06:28:00.869Z,7.06
2019-04-16T06:30:53.798Z,7.16
2019-04-16T06:33:54.496Z,7.30
2019-04-16T06:36:45.103Z,7.45
2019-04-16T06:39:33.003Z,7.59
2019-04-16T06:42:13.288Z,7.70
2019-04-16T06:45:08.305Z,7.83
2019-04-16T06:48:00.151Z,7.97
2019-04-16T06:50:59.621Z,8.10
2019-04-16T06:53:56.712Z,8.24
2019-04-16T06:56:41.940Z,8.37
2019-04-16T06:59:45.982Z,8.48
2019-04-16T07:02:43.199Z,8.63
2019-04-16T07:05:31.934Z,8.72
2019-04-16T07:08:37.462Z,8.85
2019-04-16T07:11:05.343Z,8.96
2019-04-16T07:13:41.925Z,9.10
2019-04-16T07:16:19.777Z,9.28
2019-04-16T07:19:16.803Z,9.45
2019-04-16T07:21:49.944Z,9.59
2019-04-16T07:24:30.088Z,9.73
2019-04-16T07:27:01.943Z,9.92
2019-04-16T07:29:57.937Z,10.04
2019-04-16T07:33:06.537Z,10.17
2019-04-16T07:36:15.964Z,10.28
2019-04-16T07:39:13.332Z,10.42
2019-04-16T07:42:09.370Z,10.51
2019-04-16T07:44:55.518Z,10.61
2019-04-16T07:47:43.686Z,10.76
2019-04-16T07:50:35.656Z,10.86
2019-04-16T07:53:38.386Z,10.96
2019-04-16T07:56:20.564Z,11.06
2019-04-16T07:59:12.936Z,11.15
2019-04-16T08:01:47.722Z,11.25
2019-04-16T08:04:36.477Z,11.32
2019-04-16T08:07:20.198Z,11.42
2019-04-16T08:09:53.861Z,11.52
2019-04-16T08:12:36.980Z,11.61
2019-04-16T08:15:14.195Z,11.66
2019-04-16T08:17:54.610Z,11.79
2019-04-16T08:20:27.989Z,11.89
2019-04-16T08:23:03.209Z,11.96
2019-04-16T08:25:39.124Z,12.04
2019-04-16T08:28:24.355Z,12.16
2019-04-16T08:31:00.764Z,12.27
2019-04-16T08:33:34.166Z,12.37
2019-04-16T08:36:24.825Z,12.42
2019-04-16T08:39:16.209Z,12.56
2019-04-16T08:41:52.089Z,12.67
2019-04-16T08:44:42.005Z,12.80
2019-04-16T08:47:17.551Z,12.92
2019-04-16T08:50:11.549Z,13.00
2019-04-16T08:52:58.697Z,13.13
2019-04-16T08:55:31.788Z,13.22
2019-04-16T08:58:22.759Z,13.35
2019-04-16T09:01:18.768Z,13.45
2019-04-16T09:03:50.687Z,13.55
2019-04-16T09:06:26.500Z,13.66
2019-04-16T09:09:14.230Z,13.76
2019-04-16T09:12:14.102Z,13.86
2019-04-16T09:14:56.061Z,13.97
2019-04-16T09:17:34.873Z,14.04
2019-04-16T09:20:13.519Z,14.15
2019-04-16T09:22:49.466Z,14.22
2019-04-16T09:25:33.070Z,14.35
2019-04-16T09:28:25.839Z,14.42
2019-04-16T09:31:30.677Z,14.47
2019-04-16T09:34:22.512Z,14.55
2019-04-16T09:37:25.398Z,14.60
2019-04-16T09:40:18.075Z,14.68
2019-04-16T09:43:16.172Z,14.72
2019-04-16T09:45:41.808Z,14.75
2019-04-16T09:48:27.134Z,14.77
2019-04-16T09:51:02.882Z,14.80
2019-04-16T09:53:40.379Z,14.80
2019-04-16T09:56:32.245Z,14.77
2019-04-16T09:59:15.851Z,14.86
2019-04-16T10:02:10.934Z,14.88
2019-04-16T10:05:01.491Z,14.87
2019-04-16T10:07:41.098Z,14.87
2019-04-16T10:10:32.168Z,14.88
2019-04-16T10:13:14.346Z,14.96
2019-04-16T10:15:47.538Z,15.00
2019-04-16T10:18:37.902Z,15.04
2019-04-16T10:21:18.776Z,15.08
2019-04-16T10:24:35.825Z,15.11
2019-04-16T10:27:34.025Z,15.18
2019-04-16T10:30:35.937Z,15.19
2019-04-16T10:33:15.066Z,15.24
2019-04-16T10:35:48.214Z,15.24
2019-04-16T10:38:55.072Z,15.28
2019-04-16T10:41:58.438Z,15.32
2019-04-16T10:44:49.925Z,15.38
2019-04-16T10:48:03.711Z,15.43
2019-04-16T10:51:04.943Z,15.53
2019-04-16T10:53:53.841Z,15.66
2019-04-16T10:56:46.487Z,15.70
2019-04-16T10:59:49.590Z,15.73
2019-04-16T11:02:44.062Z,15.77
2019-04-16T11:05:41.752Z,15.79
2019-04-16T11:08:15.323Z,15.77
2019-04-16T11:10:48.337Z,15.81
2019-04-16T11:13:58.350Z,15.84
2019-04-16T11:16:37.210Z,15.91
2019-04-16T11:19:27.663Z,15.94
2019-04-16T11:22:16.062Z,15.96
2019-04-16T11:24:52.398Z,16.00
2019-04-16T11:27:25.550Z,16.00
2019-04-16T11:30:31.285Z,16.03
2019-04-16T11:33:07.682Z,16.06
2019-04-16T11:35:40.854Z,16.07
2019-04-16T11:38:31.413Z,16.11
2019-04-16T11:41:07.323Z,16.16
2019-04-16T11:43:57.733Z,16.20
2019-04-16T11:46:46.662Z,16.21
2019-04-16T11:49:34.924Z,16.27
2019-04-16T11:52:25.881Z,16.29
2019-04-16T11:55:01.503Z,16.32
2019-04-16T11:57:40.529Z,16.34
2019-04-16T12:00:50.929Z,16.34
2019-04-16T12:03:37.033Z,16.32
2019-04-16T12:06:53.301Z,16.35
2019-04-16T12:09:54.274Z,16.41
2019-04-16T12:13:04.405Z,16.41
2019-04-16T12:15:57.367Z,16.41
2019-04-16T12:18:35.741Z,16.44
2019-04-16T12:21:45.265Z,16.42
2019-04-16T12:24:54.901Z,16.45
2019-04-16T12:27:45.795Z,16.45
2019-04-16T12:31:10.471Z,16.51
2019-04-16T12:34:05.318Z,16.55
2019-04-16T12:36:59.746Z,16.58
2019-04-16T12:39:50.024Z,16.60
2019-04-16T12:42:57.309Z,16.64
2019-04-16T12:45:49.187Z,16.64
2019-04-16T12:48:59.448Z,16.67
2019-04-16T12:51:57.318Z,16.66
2019-04-16T12:55:04.512Z,16.67
2019-04-16T12:57:49.341Z,16.72
2019-04-16T13:00:37.151Z,16.70
2019-04-16T13:03:52.374Z,16.73
2019-04-16T13:06:55.234Z,16.76
2019-04-16T13:09:45.983Z,16.79
2019-04-16T13:12:40.961Z,16.82
2019-04-16T13:15:31.635Z,16.82
2019-04-16T13:18:08.199Z,16.86
2019-04-16T13:21:18.096Z,16.84
2019-04-16T13:24:19.342Z,16.86
2019-04-16T13:27:08.897Z,16.84
2019-04-16T13:29:41.972Z,16.86
2019-04-16T13:32:27.926Z,16.87
2019-04-16T13:35:01.191Z,16.87
2019-04-16T13:37:41.385Z,16.93
2019-04-16T13:40:16.208Z,16.91
2019-04-16T13:42:51.977Z,16.93
2019-04-16T13:45:40.572Z,16.90
2019-04-16T13:48:35.151Z,16.86
2019-04-16T13:51:15.122Z,16.86
2019-04-16T13:54:00.361Z,16.86
2019-04-16T13:57:00.007Z,16.84
2019-04-16T14:00:04.364Z,16.82
2019-04-16T14:03:13.887Z,16.77
2019-04-16T14:05:47.239Z,16.76
2019-04-16T14:08:20.264Z,16.72
2019-04-16T14:10:53.338Z,16.67
2019-04-16T14:13:26.462Z,16.64
2019-04-16T14:15:59.515Z,16.60
2019-04-16T14:18:35.615Z,16.56
2019-04-16T14:21:08.568Z,16.53
2019-04-16T14:23:41.706Z,16.49
2019-04-16T14:26:16.385Z,16.42
2019-04-16T14:28:52.437Z,16.35
2019-04-16T14:31:25.868Z,16.32
2019-04-16T14:34:16.647Z,16.24
2019-04-16T14:36:53.119Z,16.20
2019-04-16T14:39:35.142Z,16.14
2019-04-16T14:42:08.442Z,16.08
2019-04-16T14:44:45.541Z,16.07
2019-04-16T14:47:18.583Z,16.04
2019-04-16T14:49:51.796Z,16.03
2019-04-16T14:52:25.898Z,16.00
2019-04-16T14:55:10.486Z,15.98
2019-04-16T14:58:00.853Z,15.97
2019-04-16T15:00:49.123Z,15.93
2019-04-16T15:03:43.098Z,15.90
2019-04-16T15:06:39.687Z,15.91
2019-04-16T15:09:30.208Z,15.84
2019-04-16T15:12:21.067Z,15.80
2019-04-16T15:14:58.610Z,15.76
2019-04-16T15:17:44.485Z,15.72
2019-04-16T15:20:39.537Z,15.69
2019-04-16T15:23:30.710Z,15.66
2019-04-16T15:26:37.661Z,15.62
2019-04-16T15:29:41.905Z,15.58
2019-04-16T15:32:34.096Z,15.53
2019-04-16T15:35:13.867Z,15.49
2019-04-16T15:38:02.719Z,15.48
2019-04-16T15:40:40.299Z,15.43
2019-04-16T15:43:30.255Z,15.38
2019-04-16T15:46:26.153Z,15.38
2019-04-16T15:49:19.422Z,15.32
2019-04-16T15:52:02.710Z,15.31
2019-04-16T15:54:43.903Z,15.28
2019-04-16T15:57:50.858Z,15.24
2019-04-16T16:00:48.905Z,15.22
2019-04-16T16:03:49.969Z,15.17
2019-04-16T16:06:24.798Z,15.13
2019-04-16T16:09:22.808Z,15.13
2019-04-16T16:12:00.975Z,15.06
2019-04-16T16:14:38.545Z,15.01
2019-04-16T16:17:09.474Z,14.97
2019-04-16T16:19:42.550Z,14.96
2019-04-16T16:22:16.854Z,14.88
2019-04-16T16:24:49.883Z,14.87
2019-04-16T16:27:22.972Z,14.83
2019-04-16T16:29:56.189Z,14.80
2019-04-16T16:32:29.222Z,14.75
2019-04-16T16:35:02.357Z,14.72
2019-04-16T16:37:36.894Z,14.68
2019-04-16T16:40:14.628Z,14.65
2019-04-16T16:42:46.705Z,14.60
2019-04-16T16:45:22.063Z,14.55
2019-04-16T16:47:56.521Z,14.52
2019-04-16T16:50:29.734Z,14.48
2019-04-16T16:53:25.251Z,14.43
2019-04-16T16:56:02.296Z,14.41
2019-04-16T16:58:54.518Z,14.33
2019-04-16T17:01:35.994Z,14.31
2019-04-16T17:04:12.976Z,14.27
2019-04-16T17:06:46.258Z,14.24
2019-04-16T17:09:27.140Z,14.18
2019-04-16T17:11:59.469Z,14.17
2019-04-16T17:14:36.270Z,14.13
2019-04-16T17:17:14.177Z,14.07
2019-04-16T17:19:42.329Z,14.04
2019-04-16T17:22:17.400Z,13.97
2019-04-16T17:24:50.462Z,13.93
2019-04-16T17:27:25.936Z,13.87
2019-04-16T17:29:59.017Z,13.85
2019-04-16T17:32:32.289Z,13.82
2019-04-16T17:35:07.580Z,13.75
2019-04-16T17:37:48.372Z,13.70
2019-04-16T17:40:33.643Z,13.66
2019-04-16T17:43:15.669Z,13.60
2019-04-16T17:46:14.508Z,13.53
2019-04-16T17:49:09.657Z,13.49
2019-04-16T17:51:54.731Z,13.42
2019-04-16T17:54:34.504Z,13.38
2019-04-16T17:57:16.994Z,13.30
2019-04-16T18:00:00.461Z,13.24
2019-04-16T18:03:04.561Z,13.21
2019-04-16T18:05:42.788Z,13.14
2019-04-16T18:08:40.817Z,13.10
2019-04-16T18:11:17.729Z,13.04
2019-04-16T18:13:58.047Z,13.00
2019-04-16T18:16:46.122Z,12.96
2019-04-16T18:19:37.069Z,12.92
2019-04-16T18:22:19.558Z,12.86
2019-04-16T18:25:21.353Z,12.83
2019-04-16T18:28:06.217Z,12.77
2019-04-16T18:30:57.309Z,12.73
2019-04-16T18:33:48.524Z,12.69
2019-04-16T18:36:34.596Z,12.63
2019-04-16T18:39:27.235Z,12.59
2019-04-16T18:42:19.178Z,12.53
2019-04-16T18:45:11.404Z,12.49
2019-04-16T18:48:13.862Z,12.44
2019-04-16T18:50:45.287Z,12.37
2019-04-16T18:53:18.892Z,12.31
2019-04-16T18:55:52.394Z,12.24
2019-04-16T18:58:26.681Z,12.18
2019-04-16T19:01:03.020Z,12.11
2019-04-16T19:03:37.386Z,12.05
2019-04-16T19:06:13.941Z,12.00
2019-04-16T19:08:50.671Z,11.94
2019-04-16T19:11:24.369Z,11.90
2019-04-16T19:14:03.728Z,11.82
2019-04-16T19:16:38.065Z,11.79
2019-04-16T19:19:12.288Z,11.73
2019-04-16T19:21:51.343Z,11.68
2019-04-16T19:24:24.263Z,11.59
2019-04-16T19:26:57.731Z,11.55
2019-04-16T19:29:35.854Z,11.45
2019-04-16T19:32:10.458Z,11.42
2019-04-16T19:34:46.986Z,11.34
2019-04-16T19:37:20.504Z,11.28
2019-04-16T19:39:56.260Z,11.21
2019-04-16T19:42:33.368Z,11.12
2019-04-16T19:45:08.654Z,11.08
2019-04-16T19:47:43.091Z,11.04
2019-04-16T19:50:17.757Z,10.96
2019-04-16T19:52:54.997Z,10.89
2019-04-16T19:55:29.436Z,10.80
2019-04-16T19:58:02.620Z,10.72
2019-04-16T20:00:36.446Z,10.61
2019-04-16T20:03:13.188Z,10.56
2019-04-16T20:05:50.996Z,10.48
2019-04-16T20:08:24.228Z,10.44
2019-04-16T20:11:04.009Z,10.39
2019-04-16T20:13:37.511Z,10.34
2019-04-16T20:16:12.176Z,10.32
2019-04-16T20:18:51.080Z,10.25
2019-04-16T20:21:28.601Z,10.23
2019-04-16T20:24:02.062Z,10.17
2019-04-16T20:26:56.404Z,10.17
2019-04-16T20:29:47.555Z,10.10
2019-04-16T20:32:24.523Z,10.04
2019-04-16T20:35:00.511Z,10.00
2019-04-16T20:37:35.310Z,9.92
2019-04-16T20:40:14.687Z,9.87
2019-04-16T20:42:53.606Z,9.85
2019-04-16T20:45:27.526Z,9.78
2019-04-16T20:48:01.124Z,9.72
2019-04-16T20:50:37.181Z,9.66
2019-04-16T20:53:21.703Z,9.63
2019-04-16T20:55:57.783Z,9.56
2019-04-16T20:58:34.896Z,9.51
2019-04-16T21:01:32.803Z,9.45
2019-04-16T21:04:05.037Z,9.38
2019-04-16T21:06:32.958Z,9.35
2019-04-16T21:09:10.242Z,9.28
2019-04-16T21:11:52.946Z,9.23
2019-04-16T21:14:31.996Z,9.15
2019-04-16T21:17:22.199Z,9.10
2019-04-16T21:19:55.365Z,9.06
2019-04-16T21:22:28.963Z,8.99
2019-04-16T21:25:13.797Z,8.97
2019-04-16T21:27:58.503Z,8.93
2019-04-16T21:30:47.058Z,8.89
2019-04-16T21:33:41.278Z,8.85
2019-04-16T21:36:33.875Z,8.82
2019-04-16T21:39:23.117Z,8.77
2019-04-16T21:42:02.372Z,8.69
2019-04-16T21:44:44.564Z,8.68
2019-04-16T21:47:23.599Z,8.65
2019-04-16T21:49:59.734Z,8.62
2019-04-16T21:52:36.885Z,8.56
2019-04-16T21:55:13.910Z,8.55
2019-04-16T21:57:48.873Z,8.52
2019-04-16T22:00:48.353Z,8.48
2019-04-16T22:03:27.328Z,8.47
2019-04-16T22:06:01.049Z,8.47
2019-04-16T22:08:34.412Z,8.44
2019-04-16T22:11:11.780Z,8.42
2019-04-16T22:13:44.113Z,8.37
2019-04-16T22:16:18.938Z,8.34
2019-04-16T22:18:55.092Z,8.31
2019-04-16T22:21:30.630Z,8.28
2019-04-16T22:24:05.244Z,8.25
2019-04-16T22:26:40.135Z,8.21
2019-04-16T22:29:15.798Z,8.21
2019-04-16T22:31:52.676Z,8.18
2019-04-16T22:34:23.215Z,8.17
2019-04-16T22:36:58.070Z,8.14
2019-04-16T22:39:35.818Z,8.10
2019-04-16T22:42:35.150Z,8.09
2019-04-16T22:45:32.022Z,8.09
2019-04-16T22:48:09.105Z,8.07
2019-04-16T22:50:44.696Z,8.04
2019-04-16T22:53:18.063Z,8.03
2019-04-16T22:55:56.322Z,8.02
2019-04-16T22:58:46.525Z,8.02
2019-04-16T23:01:23.520Z,8.00
2019-04-16T23:03:58.856Z,7.97
2019-04-16T23:06:38.680Z,7.99
2019-04-16T23:09:17.904Z,7.96
2019-04-16T23:11:52.688Z,7.97
2019-04-16T23:14:26.193Z,7.94
2019-04-16T23:17:01.266Z,7.97
2019-04-16T23:19:40.649Z,7.96
2019-04-16T23:22:16.401Z,7.94
2019-04-16T23:24:51.737Z,7.96
2019-04-16T23:27:26.534Z,7.97
2019-04-16T23:30:00.422Z,7.97
2019-04-16T23:32:36.023Z,8.00
2019-04-16T23:35:13.477Z,7.97
2019-04-16T23:37:47.879Z,7.96
2019-04-16T23:40:21.225Z,7.99
2019-04-16T23:43:23.153Z,7.99
2019-04-16T23:46:31.092Z,7.97
2019-04-16T23:49:29.090Z,7.99
2019-04-16T23:52:12.827Z,8.02
2019-04-16T23:54:57.743Z,8.00
2019-04-16T23:57:56.801Z,7.99
